Time;durP1;ratioP1;P1;durP2;ratioP2;P2;SDS_P1;SDS_P2;PMS_P1;PMS_P2;Temp;Humidity;BMP_temperature;BMP_pressure;BME280_temperature;BME280_humidity;BME280_pressure;Samples;Min_cycle;Max_cycle;Signal;HPM_P1;HPM_P2
2023/10/24 00:01:20;;;;;;;3.40;1.90;;;19.70;67.40;;;;;;6306909;22;20347;-62
2023/10/24 00:03:45;;;;;;;3.25;1.80;;;19.70;67.40;;;;;;6307424;22;20019;-62
2023/10/24 00:06:11;;;;;;;3.25;1.80;;;19.70;68.00;;;;;;6278152;22;20021;-61
2023/10/24 00:08:36;;;;;;;2.70;1.42;;;19.70;67.40;;;;;;6307216;22;20019;-62
2023/10/24 00:11:02;;;;;;;2.50;1.70;;;19.70;67.40;;;;;;6279488;22;20046;-61
2023/10/24 00:13:28;;;;;;;2.78;1.70;;;19.70;67.30;;;;;;6305736;22;20031;-61
2023/10/24 00:15:53;;;;;;;3.50;2.03;;;19.70;67.30;;;;;;6307826;22;20019;-61
2023/10/24 00:18:19;;;;;;;3.13;1.90;;;19.70;67.30;;;;;;6305853;22;20030;-61
2023/10/24 00:20:45;;;;;;;2.33;1.70;;;19.70;67.30;;;;;;6306413;22;20025;-61
2023/10/24 00:23:10;;;;;;;3.15;1.60;;;19.70;67.30;;;;;;6279774;22;20023;-61
2023/10/24 00:25:36;;;;;;;3.00;1.77;;;19.70;67.30;;;;;;6305882;22;20019;-61
2023/10/24 00:28:01;;;;;;;2.72;1.60;;;19.70;67.30;;;;;;6307809;22;20039;-61
2023/10/24 00:30:27;;;;;;;2.65;1.77;;;19.70;67.30;;;;;;6307096;22;20423;-61
2023/10/24 00:32:53;;;;;;;2.55;1.67;;;19.70;67.40;;;;;;6306735;22;20110;-62
2023/10/24 00:35:19;;;;;;;2.67;2.00;;;19.70;67.40;;;;;;6279410;22;20109;-62
2023/10/24 00:37:44;;;;;;;3.08;1.38;;;19.70;67.40;;;;;;6309067;22;20439;-61
2023/10/24 00:40:10;;;;;;;3.08;1.60;;;19.60;67.30;;;;;;6305777;22;20015;-61
2023/10/24 00:42:36;;;;;;;2.92;1.80;;;19.70;67.30;;;;;;6307690;22;20090;-62
2023/10/24 00:45:02;;;;;;;2.95;1.80;;;19.60;67.30;;;;;;6279903;22;20046;-62
2023/10/24 00:47:27;;;;;;;2.72;1.65;;;19.60;67.30;;;;;;6278764;22;20164;-61
2023/10/24 00:49:53;;;;;;;2.35;1.90;;;19.60;67.20;;;;;;6278317;22;20023;-61
2023/10/24 00:52:19;;;;;;;2.72;1.80;;;19.60;67.30;;;;;;6253001;22;20025;-61
2023/10/24 00:54:45;;;;;;;3.83;1.73;;;19.60;67.30;;;;;;6227679;22;20019;-61
2023/10/24 00:57:12;;;;;;;2.63;1.58;;;19.60;67.30;;;;;;6253619;22;20041;-61
2023/10/24 00:59:37;;;;;;;2.58;1.65;;;19.60;67.30;;;;;;6280287;22;20064;-62
2023/10/24 01:02:03;;;;;;;2.75;1.88;;;19.60;67.30;;;;;;6278167;22;20019;-62
2023/10/24 01:04:29;;;;;;;3.20;1.75;;;19.60;67.30;;;;;;6278591;22;20027;-61
2023/10/24 01:06:54;;;;;;;2.47;1.42;;;19.60;67.20;;;;;;6280228;22;20022;-61
2023/10/24 01:09:20;;;;;;;2.40;1.80;;;19.60;67.20;;;;;;6305565;22;20019;-61
2023/10/24 01:11:45;;;;;;;2.85;1.75;;;19.60;67.20;;;;;;6279881;22;20019;-62
2023/10/24 01:14:11;;;;;;;2.70;1.77;;;19.60;67.20;;;;;;6306937;22;20016;-61
2023/10/24 01:16:46;;;;;;;2.47;1.75;;;19.60;67.20;;;;;;6306062;22;20103;-62
2023/10/24 01:19:12;;;;;;;3.20;1.70;;;19.60;67.20;;;;;;6305777;22;20448;-61
2023/10/24 01:21:43;;;;;;;3.42;1.90;;;19.60;67.20;;;;;;6306950;22;20046;-61
2023/10/24 01:24:08;;;;;;;2.75;1.92;;;19.60;67.20;;;;;;6306965;22;20027;-61
2023/10/24 01:26:34;;;;;;;3.67;1.80;;;19.60;67.20;;;;;;6279534;22;20023;-62
2023/10/24 01:28:59;;;;;;;2.85;1.63;;;19.60;67.20;;;;;;6306133;22;20816;-62
2023/10/24 01:31:25;;;;;;;2.75;1.77;;;19.50;67.20;;;;;;6305678;22;20019;-62
2023/10/24 01:33:50;;;;;;;2.17;1.55;;;19.50;67.20;;;;;;6279361;22;20043;-61
2023/10/24 01:36:16;;;;;;;2.70;2.00;;;19.50;67.20;;;;;;6305607;22;20030;-62
2023/10/24 01:38:42;;;;;;;2.60;1.80;;;19.50;67.20;;;;;;6279420;22;20105;-62
2023/10/24 01:41:07;;;;;;;2.15;1.55;;;19.50;67.10;;;;;;6306845;22;20388;-61
2023/10/24 01:43:33;;;;;;;2.65;1.65;;;19.50;67.20;;;;;;6306488;22;20042;-62
2023/10/24 01:45:58;;;;;;;2.25;1.63;;;19.50;67.10;;;;;;6306778;22;20038;-62
2023/10/24 01:48:25;;;;;;;2.40;1.50;;;19.50;67.10;;;;;;6306784;22;20015;-62
2023/10/24 01:50:50;;;;;;;3.60;1.50;;;19.50;67.20;;;;;;6305437;22;20021;-61
2023/10/24 01:53:16;;;;;;;2.47;1.90;;;19.50;67.20;;;;;;6279163;22;20027;-62
2023/10/24 01:55:42;;;;;;;2.38;1.33;;;19.50;67.20;;;;;;6306884;22;20087;-62
2023/10/24 01:58:07;;;;;;;2.70;1.60;;;19.50;67.20;;;;;;6305931;22;20054;-61
2023/10/24 02:00:33;;;;;;;2.90;1.55;;;19.50;67.20;;;;;;6306993;22;20023;-61
2023/10/24 02:02:58;;;;;;;2.58;1.65;;;19.50;67.20;;;;;;6306250;22;20012;-62
2023/10/24 02:05:24;;;;;;;2.70;1.63;;;19.50;67.20;;;;;;6277395;22;20051;-61
2023/10/24 02:07:49;;;;;;;2.10;1.30;;;19.50;67.20;;;;;;6306201;22;20102;-62
2023/10/24 02:10:16;;;;;;;2.65;1.48;;;19.50;67.20;;;;;;6278483;22;20019;-62
2023/10/24 02:12:41;;;;;;;2.65;1.65;;;19.50;67.20;;;;;;6305430;22;20030;-62
2023/10/24 02:15:07;;;;;;;2.10;1.50;;;19.50;67.20;;;;;;6279360;22;20019;-61
2023/10/24 02:17:33;;;;;;;2.97;1.85;;;19.40;67.20;;;;;;6308075;22;20019;-62
2023/10/24 02:19:58;;;;;;;2.83;1.67;;;19.50;67.20;;;;;;6307978;22;20339;-62
2023/10/24 02:22:24;;;;;;;4.15;1.48;;;19.40;67.20;;;;;;6280264;22;20015;-62
2023/10/24 02:24:50;;;;;;;3.45;1.65;;;19.40;67.20;;;;;;6307295;22;20019;-62
2023/10/24 02:27:15;;;;;;;2.95;1.90;;;19.50;67.20;;;;;;6307691;22;20011;-62
2023/10/24 02:29:41;;;;;;;3.25;1.88;;;19.40;67.20;;;;;;6308617;22;20432;-62
2023/10/24 02:32:07;;;;;;;2.30;1.45;;;19.40;67.20;;;;;;6280233;22;20026;-62
2023/10/24 02:34:32;;;;;;;2.72;1.73;;;19.40;67.20;;;;;;6307708;22;20019;-62
2023/10/24 02:36:58;;;;;;;2.38;1.42;;;19.40;67.20;;;;;;6281188;22;20019;-62
2023/10/24 02:39:23;;;;;;;2.38;1.40;;;19.40;67.20;;;;;;6307068;22;20051;-61
2023/10/24 02:41:49;;;;;;;2.75;1.70;;;19.40;67.30;;;;;;6308203;22;20482;-62
2023/10/24 02:44:14;;;;;;;2.55;1.58;;;19.40;67.20;;;;;;6308042;22;20015;-62
2023/10/24 02:46:40;;;;;;;1.60;1.20;;;19.40;67.30;;;;;;6279524;22;20030;-62
2023/10/24 02:49:05;;;;;;;3.70;1.70;;;19.40;67.30;;;;;;6308135;22;20107;-62
2023/10/24 02:51:31;;;;;;;3.85;1.60;;;19.40;67.40;;;;;;6307716;22;20047;-62
2023/10/24 02:53:56;;;;;;;2.90;1.55;;;19.40;67.40;;;;;;6307965;22;20030;-63
2023/10/24 02:56:22;;;;;;;2.17;1.35;;;19.40;67.40;;;;;;6283167;22;20494;-64
2023/10/24 02:58:48;;;;;;;2.60;1.60;;;19.40;67.40;;;;;;6308422;22;20015;-62
2023/10/24 03:01:14;;;;;;;2.67;1.33;;;19.40;67.40;;;;;;6306433;22;20026;-62
2023/10/24 03:03:39;;;;;;;1.80;1.50;;;19.40;67.40;;;;;;6308617;22;20011;-61
2023/10/24 03:06:15;;;;;;;2.15;1.42;;;19.40;67.40;;;;;;6307995;22;20434;-62
2023/10/24 03:08:40;;;;;;;2.40;1.77;;;19.50;67.40;;;;;;6307279;22;20011;-62
2023/10/24 03:11:06;;;;;;;2.60;1.45;;;19.40;67.40;;;;;;6279542;22;20462;-61
2023/10/24 03:13:31;;;;;;;2.03;1.70;;;19.40;67.40;;;;;;6307768;22;20347;-61
2023/10/24 03:16:04;;;;;;;2.35;1.52;;;19.40;67.40;;;;;;6307102;22;20027;-62
2023/10/24 03:18:30;;;;;;;1.75;1.20;;;19.50;67.40;;;;;;6307452;22;20015;-62
2023/10/24 03:20:57;;;;;;;1.60;1.25;;;19.50;67.40;;;;;;6307969;22;20034;-62
2023/10/24 03:23:22;;;;;;;2.35;1.55;;;19.50;67.40;;;;;;6307214;22;20042;-62
2023/10/24 03:25:48;;;;;;;3.28;1.73;;;19.50;67.40;;;;;;6308217;22;20466;-62
2023/10/24 03:28:14;;;;;;;2.47;1.40;;;19.50;67.40;;;;;;6307316;22;20026;-62
2023/10/24 03:30:40;;;;;;;1.85;1.30;;;19.50;67.40;;;;;;6307874;22;20023;-62
2023/10/24 03:33:05;;;;;;;2.95;1.60;;;19.50;67.40;;;;;;6280566;22;20022;-62
2023/10/24 03:35:34;;;;;;;2.90;1.20;;;19.60;67.30;;;;;;6306687;22;20019;-62
2023/10/24 03:38:01;;;;;;;2.28;1.20;;;19.60;67.40;;;;;;6280325;22;20019;-62
2023/10/24 03:40:27;;;;;;;3.33;1.40;;;19.60;67.30;;;;;;6307293;22;20351;-62
2023/10/24 03:42:53;;;;;;;2.50;1.60;;;19.60;67.30;;;;;;6307255;22;20435;-62
2023/10/24 03:45:19;;;;;;;2.58;1.73;;;19.60;67.30;;;;;;6307549;22;20018;-62
2023/10/24 03:47:44;;;;;;;1.80;1.45;;;19.70;67.30;;;;;;6280565;22;20355;-62
2023/10/24 03:50:10;;;;;;;1.90;1.50;;;19.60;67.30;;;;;;6278823;22;20019;-62
2023/10/24 03:52:35;;;;;;;3.33;1.70;;;19.60;67.20;;;;;;6308039;22;20022;-62
2023/10/24 03:55:01;;;;;;;2.63;1.55;;;19.70;67.30;;;;;;6307844;22;20023;-62
2023/10/24 03:57:26;;;;;;;1.90;1.20;;;19.70;67.30;;;;;;6306606;22;20012;-62
2023/10/24 03:59:52;;;;;;;2.30;1.23;;;19.70;67.30;;;;;;6280185;22;20019;-62
2023/10/24 04:02:17;;;;;;;2.90;1.27;;;19.70;67.20;;;;;;6306303;22;20051;-62
2023/10/24 04:04:43;;;;;;;2.35;1.35;;;19.70;67.20;;;;;;6279137;22;20463;-62
2023/10/24 04:07:09;;;;;;;2.95;1.52;;;19.70;67.20;;;;;;6307003;22;20360;-62
2023/10/24 04:09:34;;;;;;;2.10;1.30;;;19.70;67.30;;;;;;6307494;22;20016;-61
2023/10/24 04:12:00;;;;;;;2.55;1.63;;;19.70;67.20;;;;;;6306709;22;20020;-61
2023/10/24 04:14:25;;;;;;;2.20;1.55;;;19.80;67.30;;;;;;6279565;22;20016;-62
2023/10/24 04:16:51;;;;;;;1.70;1.23;;;19.80;67.20;;;;;;6307985;22;20027;-62
2023/10/24 04:19:16;;;;;;;2.25;1.25;;;19.80;67.20;;;;;;6306219;22;20069;-62
2023/10/24 04:21:42;;;;;;;2.05;1.40;;;19.80;67.20;;;;;;6280122;22;20023;-62
2023/10/24 04:24:08;;;;;;;1.85;1.15;;;19.80;67.20;;;;;;6306157;22;20419;-62
2023/10/24 04:26:34;;;;;;;2.67;1.52;;;19.80;67.20;;;;;;6305838;22;20333;-62
2023/10/24 04:28:59;;;;;;;2.90;1.50;;;19.80;67.20;;;;;;6280086;22;20022;-62
2023/10/24 04:31:25;;;;;;;1.58;1.20;;;19.80;67.20;;;;;;6307125;22;20054;-62
2023/10/24 04:33:51;;;;;;;2.50;1.45;;;19.90;67.30;;;;;;6306385;22;20050;-62
2023/10/24 04:36:16;;;;;;;2.33;1.35;;;19.90;67.20;;;;;;6306682;22;20397;-62
2023/10/24 04:38:42;;;;;;;2.63;1.30;;;19.90;67.20;;;;;;6278685;22;20015;-62
2023/10/24 04:41:07;;;;;;;2.03;1.30;;;19.90;67.30;;;;;;6306990;22;20026;-63
2023/10/24 04:43:33;;;;;;;1.63;1.15;;;19.90;67.20;;;;;;6279952;22;20019;-62
2023/10/24 04:45:59;;;;;;;2.08;1.10;;;19.90;67.20;;;;;;6305718;22;20312;-62
2023/10/24 04:48:25;;;;;;;2.22;1.00;;;19.90;67.30;;;;;;6307299;22;20376;-62
2023/10/24 04:50:51;;;;;;;2.13;1.20;;;20.00;67.30;;;;;;6307482;22;20019;-62
2023/10/24 04:53:16;;;;;;;2.20;1.42;;;19.90;67.20;;;;;;6305181;22;20080;-62
2023/10/24 04:55:42;;;;;;;1.45;1.10;;;19.90;67.20;;;;;;6279678;22;20012;-62
2023/10/24 04:58:08;;;;;;;1.30;0.90;;;20.00;67.30;;;;;;6279176;22;20351;-62
2023/10/24 05:00:33;;;;;;;1.45;1.00;;;19.90;67.20;;;;;;6275961;22;20044;-62
2023/10/24 05:02:59;;;;;;;1.52;1.20;;;20.00;67.30;;;;;;6305740;22;20022;-62
2023/10/24 05:05:25;;;;;;;1.55;1.23;;;20.00;67.20;;;;;;6305935;22;20015;-62
2023/10/24 05:07:50;;;;;;;2.53;1.20;;;20.00;67.30;;;;;;6278871;22;20072;-62
2023/10/24 05:10:16;;;;;;;1.75;1.30;;;20.00;67.30;;;;;;6278745;22;20338;-62
2023/10/24 05:12:42;;;;;;;1.52;1.08;;;20.00;67.30;;;;;;6281137;22;20060;-62
2023/10/24 05:15:08;;;;;;;1.67;1.17;;;20.00;67.30;;;;;;6306899;22;20020;-62
2023/10/24 05:17:33;;;;;;;2.10;1.30;;;20.00;67.20;;;;;;6280126;22;20019;-62
2023/10/24 05:19:59;;;;;;;1.42;0.90;;;20.00;67.20;;;;;;6306968;22;20089;-62
2023/10/24 05:22:25;;;;;;;2.35;1.20;;;20.00;67.30;;;;;;6305901;22;20317;-62
2023/10/24 05:24:51;;;;;;;1.70;0.93;;;20.00;67.30;;;;;;6306730;22;20093;-61
2023/10/24 05:27:17;;;;;;;1.65;1.00;;;20.00;67.30;;;;;;6306619;22;20019;-62
2023/10/24 05:29:43;;;;;;;1.48;1.15;;;20.00;67.30;;;;;;6305965;22;20015;-62
2023/10/24 05:32:08;;;;;;;1.73;1.15;;;20.00;67.30;;;;;;6306920;22;20316;-62
2023/10/24 05:34:34;;;;;;;1.50;0.93;;;20.00;67.90;;;;;;6307149;22;20023;-62
2023/10/24 05:36:59;;;;;;;2.13;1.23;;;20.00;67.30;;;;;;6306329;22;20096;-62
2023/10/24 05:39:26;;;;;;;1.77;1.10;;;20.00;67.40;;;;;;6305744;22;20023;-62
2023/10/24 05:41:52;;;;;;;1.88;0.80;;;20.00;67.40;;;;;;6278867;22;20019;-62
2023/10/24 05:44:17;;;;;;;1.70;1.00;;;20.00;67.40;;;;;;6305938;22;20098;-62
2023/10/24 05:46:43;;;;;;;1.73;0.90;;;20.00;67.40;;;;;;6279516;22;20446;-61
2023/10/24 05:49:09;;;;;;;1.90;1.15;;;19.90;67.30;;;;;;6305043;22;20521;-62
2023/10/24 05:51:34;;;;;;;1.80;1.15;;;20.00;67.40;;;;;;6307583;22;20447;-61
2023/10/24 05:54:00;;;;;;;2.20;1.10;;;19.90;67.30;;;;;;6281624;22;20435;-61
2023/10/24 05:56:25;;;;;;;1.85;1.30;;;19.90;67.30;;;;;;6279755;22;20019;-62
2023/10/24 05:58:51;;;;;;;2.08;1.25;;;19.90;67.30;;;;;;6281512;22;20060;-62
2023/10/24 06:01:17;;;;;;;1.58;0.98;;;20.00;67.40;;;;;;6308304;22;20026;-62
2023/10/24 06:03:42;;;;;;;1.30;0.80;;;19.90;67.40;;;;;;6307741;22;20023;-62
2023/10/24 06:06:08;;;;;;;1.27;1.00;;;19.90;67.50;;;;;;6280454;22;20016;-62
2023/10/24 06:08:34;;;;;;;2.58;1.10;;;19.90;67.50;;;;;;6309154;22;20019;-62
2023/10/24 06:11:03;;;;;;;1.55;0.80;;;19.90;67.50;;;;;;6307595;22;20019;-62
2023/10/24 06:13:28;;;;;;;1.45;0.85;;;19.90;67.50;;;;;;6308091;22;20019;-62
2023/10/24 06:15:54;;;;;;;1.35;0.90;;;19.90;67.40;;;;;;6308935;22;20030;-61
2023/10/24 06:18:20;;;;;;;1.60;0.90;;;19.90;67.50;;;;;;6280247;22;20026;-60
2023/10/24 06:20:46;;;;;;;2.88;1.08;;;20.00;67.50;;;;;;6308185;22;20023;-62
2023/10/24 06:23:12;;;;;;;4.38;0.90;;;19.90;67.40;;;;;;6307924;22;20053;-63
2023/10/24 06:25:38;;;;;;;1.70;0.98;;;19.90;67.40;;;;;;6276697;22;20023;-61
2023/10/24 06:28:04;;;;;;;2.97;1.40;;;19.90;67.50;;;;;;6306650;22;20023;-61
2023/10/24 06:30:30;;;;;;;3.65;1.30;;;19.90;67.60;;;;;;6306735;22;20043;-61
2023/10/24 06:32:56;;;;;;;5.25;1.20;;;19.90;67.70;;;;;;6307854;22;20025;-61
2023/10/24 06:35:21;;;;;;;3.03;0.85;;;19.90;67.80;;;;;;6307395;22;20023;-62
2023/10/24 06:37:47;;;;;;;3.80;1.13;;;20.00;67.90;;;;;;6281224;22;20434;-61
2023/10/24 06:40:13;;;;;;;2.90;0.98;;;20.00;68.00;;;;;;6279647;22;20092;-60
2023/10/24 06:42:38;;;;;;;2.30;1.00;;;20.00;68.00;;;;;;6308738;22;20019;-61
2023/10/24 06:45:05;;;;;;;4.43;1.13;;;20.00;68.00;;;;;;6308606;22;20015;-61
2023/10/24 06:47:31;;;;;;;3.53;1.33;;;20.00;68.10;;;;;;6280214;22;20025;-61
2023/10/24 06:49:56;;;;;;;2.45;1.00;;;20.00;68.10;;;;;;6307737;22;20098;-62
2023/10/24 06:52:22;;;;;;;1.83;0.95;;;20.00;68.20;;;;;;6307116;22;20026;-62
2023/10/24 06:54:47;;;;;;;4.90;1.17;;;20.00;68.20;;;;;;6280584;22;20019;-62
2023/10/24 06:57:13;;;;;;;2.17;0.90;;;20.00;68.30;;;;;;6308114;22;20011;-62
2023/10/24 06:59:38;;;;;;;2.90;1.10;;;20.00;68.30;;;;;;6307245;22;20026;-62
2023/10/24 07:02:04;;;;;;;3.45;1.00;;;20.10;68.30;;;;;;6308183;22;20015;-62
2023/10/24 07:04:30;;;;;;;5.90;1.10;;;20.10;68.40;;;;;;6307494;22;20560;-63
2023/10/24 07:06:55;;;;;;;2.88;0.90;;;20.10;68.50;;;;;;6307311;22;20097;-62
2023/10/24 07:09:21;;;;;;;4.55;1.00;;;20.10;68.50;;;;;;6308155;22;20082;-61
2023/10/24 07:11:46;;;;;;;2.08;0.90;;;20.10;68.50;;;;;;6307920;22;20438;-61
2023/10/24 07:14:12;;;;;;;2.83;1.00;;;20.10;68.50;;;;;;6306967;22;20098;-62
2023/10/24 07:16:37;;;;;;;3.92;0.90;;;20.10;68.40;;;;;;6308190;22;20019;-61
2023/10/24 07:19:03;;;;;;;2.05;1.05;;;20.10;68.40;;;;;;6277849;22;20067;-61
2023/10/24 07:21:28;;;;;;;2.63;0.80;;;20.10;68.30;;;;;;6306676;22;20026;-63
2023/10/24 07:23:56;;;;;;;4.78;1.00;;;20.10;68.40;;;;;;6279828;22;20078;-62
2023/10/24 07:26:21;;;;;;;3.13;0.80;;;20.20;68.50;;;;;;6307088;22;20068;-61
2023/10/24 07:28:47;;;;;;;2.88;1.02;;;20.20;68.60;;;;;;6306880;22;20011;-61
2023/10/24 07:31:12;;;;;;;5.18;1.42;;;20.20;68.60;;;;;;6308829;22;20336;-61
2023/10/24 07:33:38;;;;;;;2.85;1.00;;;20.20;68.50;;;;;;6280618;22;20089;-63
2023/10/24 07:36:05;;;;;;;2.92;1.10;;;20.20;68.50;;;;;;6306289;22;20508;-62
2023/10/24 07:38:31;;;;;;;2.10;1.00;;;20.20;68.60;;;;;;6307858;22;20086;-62
2023/10/24 07:40:56;;;;;;;2.25;1.00;;;20.20;68.70;;;;;;6307604;22;20046;-63
2023/10/24 07:43:22;;;;;;;2.65;1.00;;;20.20;68.70;;;;;;6278132;22;20016;-62
2023/10/24 07:45:51;;;;;;;3.38;1.00;;;20.20;68.80;;;;;;6279891;22;20019;-72
2023/10/24 07:48:16;;;;;;;7.50;1.20;;;20.20;68.80;;;;;;6280127;22;20065;-61
2023/10/24 07:50:50;;;;;;;3.38;1.13;;;20.20;68.80;;;;;;6306497;22;20015;-62
2023/10/24 07:53:15;;;;;;;4.10;1.23;;;20.20;68.60;;;;;;6306783;22;20020;-64
2023/10/24 07:55:41;;;;;;;4.53;1.02;;;20.20;68.60;;;;;;6306440;22;20041;-61
2023/10/24 07:58:08;;;;;;;2.17;0.90;;;20.20;68.60;;;;;;6307880;22;20098;-61
2023/10/24 08:00:34;;;;;;;3.60;1.08;;;20.20;68.60;;;;;;6306432;22;20223;-60
2023/10/24 08:03:00;;;;;;;3.22;1.33;;;20.20;68.50;;;;;;6306295;22;20474;-61
2023/10/24 08:05:25;;;;;;;3.42;1.10;;;20.20;68.50;;;;;;6306171;22;20019;-61
2023/10/24 08:07:51;;;;;;;2.15;0.85;;;20.20;68.50;;;;;;6307380;22;20041;-61
2023/10/24 08:10:17;;;;;;;2.03;0.80;;;20.20;68.50;;;;;;6305548;22;20019;-61
2023/10/24 08:12:43;;;;;;;2.05;0.90;;;20.20;68.50;;;;;;6279528;22;20020;-60
2023/10/24 08:15:09;;;;;;;5.60;0.88;;;20.20;68.50;;;;;;6306165;22;20077;-61
2023/10/24 08:17:34;;;;;;;2.13;1.00;;;20.20;68.50;;;;;;6306290;22;20026;-62
2023/10/24 08:20:00;;;;;;;3.40;0.80;;;20.20;68.50;;;;;;6279505;22;20026;-62
2023/10/24 08:22:25;;;;;;;2.60;0.93;;;20.20;68.50;;;;;;6279335;22;20453;-62
2023/10/24 08:24:51;;;;;;;1.65;0.90;;;20.20;68.50;;;;;;6305311;22;20068;-62
2023/10/24 08:27:16;;;;;;;3.05;1.08;;;20.20;68.50;;;;;;6305850;22;20019;-59
2023/10/24 08:29:42;;;;;;;3.25;1.05;;;20.20;68.50;;;;;;6307528;22;20089;-60
2023/10/24 08:32:08;;;;;;;2.80;0.98;;;20.10;68.40;;;;;;6278521;22;20054;-60
2023/10/24 08:34:36;;;;;;;2.42;1.00;;;20.20;68.40;;;;;;6279410;22;20023;-60
2023/10/24 08:37:05;;;;;;;2.95;1.00;;;20.10;68.40;;;;;;6307124;22;20354;-60
2023/10/24 08:39:31;;;;;;;1.83;1.05;;;20.10;68.50;;;;;;6305863;22;20041;-60
2023/10/24 08:41:59;;;;;;;2.00;0.95;;;20.10;68.50;;;;;;6306923;22;20455;-60
2023/10/24 08:44:26;;;;;;;2.97;1.02;;;20.10;68.60;;;;;;6306664;22;20019;-60
2023/10/24 08:46:51;;;;;;;1.92;0.85;;;20.10;68.50;;;;;;6279563;22;20462;-60
2023/10/24 08:49:18;;;;;;;2.75;1.02;;;20.10;68.60;;;;;;6305776;22;20024;-60
2023/10/24 08:51:45;;;;;;;3.50;1.30;;;20.10;68.60;;;;;;6278756;22;20016;-60
2023/10/24 08:54:10;;;;;;;3.88;1.23;;;20.10;68.60;;;;;;6278378;22;20015;-60
2023/10/24 08:56:37;;;;;;;3.55;1.00;;;20.10;68.60;;;;;;6304077;22;20106;-61
2023/10/24 08:59:04;;;;;;;3.45;1.00;;;20.10;68.70;;;;;;6304925;22;20023;-60
2023/10/24 09:01:29;;;;;;;3.58;1.02;;;20.20;68.70;;;;;;6253565;22;20016;-61
2023/10/24 09:03:55;;;;;;;3.15;1.23;;;20.10;68.70;;;;;;6306407;22;20023;-61
2023/10/24 09:06:23;;;;;;;3.50;0.90;;;20.10;68.70;;;;;;6252993;22;20366;-61
2023/10/24 09:08:49;;;;;;;4.57;1.13;;;20.10;68.80;;;;;;6307226;22;20023;-61
2023/10/24 09:11:15;;;;;;;1.70;0.98;;;20.10;68.70;;;;;;6306749;22;20023;-61
2023/10/24 09:13:40;;;;;;;4.20;1.27;;;20.10;68.70;;;;;;6305613;22;20024;-60
2023/10/24 09:16:09;;;;;;;4.65;1.33;;;20.10;68.70;;;;;;6279433;22;20023;-60
2023/10/24 09:18:36;;;;;;;4.18;0.95;;;20.10;68.70;;;;;;6307046;22;20459;-60
2023/10/24 09:21:04;;;;;;;2.80;1.08;;;20.10;68.80;;;;;;6306088;22;20015;-60
2023/10/24 09:23:31;;;;;;;2.95;1.00;;;20.10;68.70;;;;;;6306687;22;20019;-60
2023/10/24 09:26:00;;;;;;;3.75;1.15;;;20.10;68.70;;;;;;6279643;22;20027;-61
2023/10/24 09:28:25;;;;;;;2.67;1.08;;;20.10;68.60;;;;;;6278921;22;20027;-61
2023/10/24 09:30:51;;;;;;;3.70;0.90;;;20.10;68.60;;;;;;6278161;22;20015;-60
2023/10/24 09:33:16;;;;;;;2.85;1.00;;;20.10;68.70;;;;;;6305981;22;20047;-61
2023/10/24 09:35:42;;;;;;;1.58;0.90;;;20.10;68.60;;;;;;6278615;22;20080;-61
2023/10/24 09:38:08;;;;;;;2.22;0.70;;;20.10;68.60;;;;;;6279423;22;20095;-61
2023/10/24 09:40:37;;;;;;;2.25;0.90;;;20.10;68.60;;;;;;6306774;22;20023;-61
2023/10/24 09:43:20;;;;;;;2.17;0.90;;;20.10;68.60;;;;;;6306220;22;20016;-60
2023/10/24 09:45:46;;;;;;;3.00;1.08;;;20.10;68.60;;;;;;6306942;22;20015;-61
2023/10/24 09:48:11;;;;;;;2.10;1.30;;;20.10;68.60;;;;;;6227628;22;20348;-61
2023/10/24 09:50:41;;;;;;;2.42;0.90;;;20.10;68.60;;;;;;6305726;22;20337;-62
2023/10/24 09:53:07;;;;;;;2.15;0.90;;;20.10;68.60;;;;;;6304369;22;20347;-61
2023/10/24 09:55:36;;;;;;;3.75;1.13;;;20.10;68.50;;;;;;6277277;22;20015;-61
2023/10/24 09:58:03;;;;;;;5.13;1.20;;;20.10;68.70;;;;;;6305934;22;20019;-61
2023/10/24 10:00:28;;;;;;;2.58;1.27;;;20.10;68.80;;;;;;6253624;22;20043;-61
2023/10/24 10:02:56;;;;;;;2.53;1.20;;;20.10;68.90;;;;;;6278188;22;20019;-61
2023/10/24 10:05:22;;;;;;;5.63;1.05;;;20.10;68.90;;;;;;6254177;22;20439;-61
2023/10/24 10:07:48;;;;;;;4.22;1.05;;;20.10;69.00;;;;;;6253936;22;20095;-61
2023/10/24 10:10:15;;;;;;;2.75;1.15;;;20.10;69.10;;;;;;6305166;22;20011;-61
2023/10/24 10:12:41;;;;;;;3.47;0.90;;;20.10;69.10;;;;;;6253766;22;20019;-61
2023/10/24 10:15:29;;;;;;;4.70;1.00;;;20.10;69.10;;;;;;6228207;22;20372;-61
2023/10/24 10:18:15;;;;;;;1.85;0.93;;;20.10;69.20;;;;;;6277999;22;20450;-61
2023/10/24 10:20:59;;;;;;;2.20;0.90;;;20.10;69.20;;;;;;6278888;22;20019;-61
2023/10/24 10:23:56;;;;;;;2.42;1.10;;;20.10;69.20;;;;;;6277899;22;20007;-61
2023/10/24 10:26:24;;;;;;;2.20;1.02;;;20.10;69.20;;;;;;6306189;22;20023;-61
2023/10/24 10:28:56;;;;;;;3.75;0.82;;;20.10;69.20;;;;;;6278378;22;20022;-61
2023/10/24 10:31:42;;;;;;;2.47;0.80;;;20.20;69.20;;;;;;6252109;22;20027;-61
2023/10/24 10:34:07;;;;;;;3.13;0.85;;;20.20;69.30;;;;;;6252655;22;20022;-61
2023/10/24 10:36:33;;;;;;;4.25;0.90;;;20.20;69.30;;;;;;6279076;22;20019;-61
2023/10/24 10:39:08;;;;;;;2.65;0.80;;;20.20;69.30;;;;;;6306486;22;20383;-60
2023/10/24 10:41:34;;;;;;;4.95;1.25;;;20.10;69.20;;;;;;6307460;22;20094;-60
2023/10/24 10:44:00;;;;;;;2.50;0.90;;;20.20;69.20;;;;;;6307366;22;20046;-60
2023/10/24 10:46:27;;;;;;;2.78;0.80;;;20.20;69.30;;;;;;6307591;22;20427;-60
2023/10/24 10:48:59;;;;;;;2.58;0.95;;;20.20;69.10;;;;;;6279763;22;20026;-60
2023/10/24 10:51:31;;;;;;;2.45;0.90;;;20.20;69.00;;;;;;6278987;22;20094;-60
2023/10/24 10:54:17;;;;;;;3.95;1.33;;;20.20;68.90;;;;;;6307109;22;20011;-60
2023/10/24 10:56:43;;;;;;;3.83;1.17;;;20.20;69.00;;;;;;6280203;22;20335;-60
2023/10/24 10:59:25;;;;;;;1.80;1.00;;;20.20;69.00;;;;;;6253616;22;20015;-60
2023/10/24 11:02:29;;;;;;;2.30;1.10;;;20.20;68.90;;;;;;6280872;22;20046;-59
2023/10/24 11:04:55;;;;;;;2.08;0.98;;;20.20;69.00;;;;;;6280872;22;20060;-60
2023/10/24 11:07:50;;;;;;;2.65;1.00;;;20.20;69.00;;;;;;6306406;22;20015;-60
2023/10/24 11:10:16;;;;;;;8.95;1.30;;;20.20;69.10;;;;;;6307497;22;20085;-59
2023/10/24 11:12:48;;;;;;;2.72;1.00;;;20.20;69.10;;;;;;6307090;22;20030;-60
2023/10/24 11:15:17;;;;;;;2.95;1.30;;;20.20;69.20;;;;;;6307534;22;20022;-60
2023/10/24 11:17:43;;;;;;;4.05;1.00;;;20.20;69.20;;;;;;6307954;22;20102;-60
2023/10/24 11:20:09;;;;;;;2.33;0.93;;;20.20;69.30;;;;;;6306614;22;20090;-60
2023/10/24 11:22:38;;;;;;;1.92;0.88;;;20.20;69.30;;;;;;6308201;22;20015;-60
2023/10/24 11:25:10;;;;;;;1.55;0.70;;;20.20;69.30;;;;;;6308133;22;20027;-60
2023/10/24 11:27:39;;;;;;;3.80;0.90;;;20.20;69.30;;;;;;6305956;22;20046;-60
2023/10/24 11:30:05;;;;;;;4.68;1.15;;;20.20;69.40;;;;;;6281448;22;20099;-59
2023/10/24 11:32:31;;;;;;;2.22;1.20;;;20.20;69.40;;;;;;6307660;22;20076;-60
2023/10/24 11:34:57;;;;;;;2.90;0.90;;;20.20;69.40;;;;;;6278984;22;20097;-59
2023/10/24 11:37:22;;;;;;;1.98;1.23;;;20.20;69.40;;;;;;6307737;22;20324;-59
2023/10/24 11:39:49;;;;;;;3.47;1.10;;;20.20;69.40;;;;;;6280344;22;20015;-59
2023/10/24 11:42:14;;;;;;;4.47;0.90;;;20.30;69.50;;;;;;6278455;22;20019;-59
2023/10/24 11:44:40;;;;;;;3.58;1.00;;;20.30;69.60;;;;;;6280282;22;20025;-60
2023/10/24 11:47:07;;;;;;;3.15;0.98;;;20.30;69.60;;;;;;6307597;22;20304;-60
2023/10/24 11:49:36;;;;;;;4.88;1.30;;;20.30;69.60;;;;;;6306173;22;20061;-60
2023/10/24 11:52:02;;;;;;;3.72;1.15;;;20.30;69.60;;;;;;6307892;22;20019;-60
2023/10/24 11:54:27;;;;;;;2.70;1.00;;;20.30;69.70;;;;;;6307236;22;20045;-60
2023/10/24 11:56:53;;;;;;;1.90;0.82;;;20.30;70.30;;;;;;6253886;22;20049;-60
2023/10/24 11:59:19;;;;;;;2.88;0.90;;;20.30;69.70;;;;;;6307712;22;20015;-59
2023/10/24 12:01:44;;;;;;;2.72;1.20;;;20.30;69.70;;;;;;6306618;22;20027;-60
2023/10/24 12:04:11;;;;;;;2.92;0.90;;;20.30;69.60;;;;;;6307033;22;20090;-60
2023/10/24 12:06:37;;;;;;;2.35;0.95;;;20.40;69.60;;;;;;6307863;22;20098;-61
2023/10/24 12:09:02;;;;;;;3.28;0.90;;;20.40;69.60;;;;;;6279285;22;20086;-61
2023/10/24 12:11:28;;;;;;;2.92;0.88;;;20.40;69.60;;;;;;6279184;22;20023;-61
2023/10/24 12:13:53;;;;;;;3.05;1.15;;;20.40;69.60;;;;;;6254291;22;20016;-60
2023/10/24 12:16:19;;;;;;;4.63;1.20;;;20.40;69.50;;;;;;6250290;22;20023;-61
2023/10/24 12:18:44;;;;;;;3.88;1.15;;;20.40;69.50;;;;;;6280005;22;20046;-61
2023/10/24 12:21:11;;;;;;;4.05;1.00;;;20.40;69.50;;;;;;6306138;22;20347;-61
2023/10/24 12:23:36;;;;;;;4.85;1.10;;;20.50;69.60;;;;;;6278884;22;20106;-61
2023/10/24 12:26:04;;;;;;;2.28;1.05;;;20.50;69.50;;;;;;6278546;22;20367;-61
2023/10/24 12:28:30;;;;;;;4.75;1.20;;;20.50;69.50;;;;;;6307315;22;20008;-61
2023/10/24 12:30:55;;;;;;;5.93;1.50;;;20.50;69.50;;;;;;6278985;22;20508;-62
2023/10/24 12:33:21;;;;;;;4.40;1.20;;;20.50;69.50;;;;;;6279454;22;20016;-62
2023/10/24 12:35:47;;;;;;;4.03;1.27;;;20.50;69.60;;;;;;6279585;22;20097;-62
2023/10/24 12:38:13;;;;;;;2.83;1.13;;;20.50;69.60;;;;;;6278374;22;20340;-62
2023/10/24 12:40:38;;;;;;;3.40;1.38;;;20.50;69.60;;;;;;6279700;22;20019;-61
2023/10/24 12:43:04;;;;;;;3.75;1.17;;;20.50;69.60;;;;;;6279742;22;20097;-61
2023/10/24 12:45:30;;;;;;;3.75;1.35;;;20.50;69.60;;;;;;6278595;22;20019;-61